sensor_id;sensor_type;location;lat;lon;timestamp;temperature;humidity
6206;DHT22;3136;48.788;9.772;2023-06-04T00:02:19;12.00;1.00
6206;DHT22;3136;48.788;9.772;2023-06-04T00:04:44;12.00;1.00
6206;DHT22;3136;48.788;9.772;2023-06-04T00:07:10;12.00;1.00
6206;DHT22;3136;48.788;9.772;2023-06-04T00:09:35;11.90;24.20
6206;DHT22;3136;48.788;9.772;2023-06-04T00:12:01;11.90;61.10
6206;DHT22;3136;48.788;9.772;2023-06-04T00:14:27;12.90;99.90
6206;DHT22;3136;48.788;9.772;2023-06-04T00:16:52;11.80;99.90
6206;DHT22;3136;48.788;9.772;2023-06-04T00:19:18;12.40;99.90
6206;DHT22;3136;48.788;9.772;2023-06-04T00:21:45;11.80;99.90
6206;DHT22;3136;48.788;9.772;2023-06-04T00:24:10;11.70;99.90
6206;DHT22;3136;48.788;9.772;2023-06-04T00:26:37;11.60;99.90
6206;DHT22;3136;48.788;9.772;2023-06-04T00:29:03;11.60;99.90
6206;DHT22;3136;48.788;9.772;2023-06-04T00:31:28;11.50;99.90
6206;DHT22;3136;48.788;9.772;2023-06-04T00:33:54;11.50;1.00
6206;DHT22;3136;48.788;9.772;2023-06-04T00:36:20;11.50;1.00
6206;DHT22;3136;48.788;9.772;2023-06-04T00:38:46;11.50;1.00
6206;DHT22;3136;48.788;9.772;2023-06-04T00:41:11;11.50;1.00
6206;DHT22;3136;48.788;9.772;2023-06-04T00:43:37;11.50;1.00
6206;DHT22;3136;48.788;9.772;2023-06-04T00:46:02;11.50;1.00
6206;DHT22;3136;48.788;9.772;2023-06-04T00:48:28;11.50;1.00
6206;DHT22;3136;48.788;9.772;2023-06-04T00:50:56;11.40;1.00
6206;DHT22;3136;48.788;9.772;2023-06-04T00:53:23;11.40;1.00
6206;DHT22;3136;48.788;9.772;2023-06-04T00:55:49;11.30;1.00
6206;DHT22;3136;48.788;9.772;2023-06-04T00:58:15;11.20;1.00
6206;DHT22;3136;48.788;9.772;2023-06-04T01:00:42;11.20;1.00
6206;DHT22;3136;48.788;9.772;2023-06-04T01:03:14;11.20;1.00
6206;DHT22;3136;48.788;9.772;2023-06-04T01:05:40;11.10;9.40
6206;DHT22;3136;48.788;9.772;2023-06-04T01:08:09;11.10;13.90
6206;DHT22;3136;48.788;9.772;2023-06-04T01:10:35;11.00;1.00
6206;DHT22;3136;48.788;9.772;2023-06-04T01:13:01;10.90;1.50
6206;DHT22;3136;48.788;9.772;2023-06-04T01:15:27;10.80;99.90
6206;DHT22;3136;48.788;9.772;2023-06-04T01:18:00;11.30;1.00
6206;DHT22;3136;48.788;9.772;2023-06-04T01:20:42;10.80;1.00
6206;DHT22;3136;48.788;9.772;2023-06-04T01:26:05;10.70;99.90
6206;DHT22;3136;48.788;9.772;2023-06-04T01:28:32;10.70;1.00
6206;DHT22;3136;48.788;9.772;2023-06-04T01:30:59;10.70;99.90
6206;DHT22;3136;48.788;9.772;2023-06-04T01:33:25;10.60;1.00
6206;DHT22;3136;48.788;9.772;2023-06-04T01:35:51;10.60;1.00
6206;DHT22;3136;48.788;9.772;2023-06-04T01:38:17;10.60;1.00
6206;DHT22;3136;48.788;9.772;2023-06-04T01:40:43;10.60;1.00
6206;DHT22;3136;48.788;9.772;2023-06-04T01:43:09;10.60;1.00
6206;DHT22;3136;48.788;9.772;2023-06-04T01:45:34;10.50;1.00
6206;DHT22;3136;48.788;9.772;2023-06-04T01:48:04;10.50;1.00
6206;DHT22;3136;48.788;9.772;2023-06-04T01:50:30;10.50;99.90
6206;DHT22;3136;48.788;9.772;2023-06-04T01:52:56;10.40;99.90
6206;DHT22;3136;48.788;9.772;2023-06-04T01:55:21;11.30;1.00
6206;DHT22;3136;48.788;9.772;2023-06-04T01:57:47;10.40;1.00
6206;DHT22;3136;48.788;9.772;2023-06-04T02:00:13;10.40;1.00
6206;DHT22;3136;48.788;9.772;2023-06-04T02:02:41;11.20;1.00
6206;DHT22;3136;48.788;9.772;2023-06-04T02:05:08;10.30;1.00
6206;DHT22;3136;48.788;9.772;2023-06-04T02:07:38;11.30;1.00
6206;DHT22;3136;48.788;9.772;2023-06-04T02:10:06;10.30;1.00
6206;DHT22;3136;48.788;9.772;2023-06-04T02:12:32;10.30;99.90
6206;DHT22;3136;48.788;9.772;2023-06-04T02:14:57;10.20;99.90
6206;DHT22;3136;48.788;9.772;2023-06-04T02:17:23;11.30;1.00
6206;DHT22;3136;48.788;9.772;2023-06-04T02:19:48;10.10;1.00
6206;DHT22;3136;48.788;9.772;2023-06-04T02:22:17;10.10;1.00
6206;DHT22;3136;48.788;9.772;2023-06-04T02:24:43;10.00;1.00
6206;DHT22;3136;48.788;9.772;2023-06-04T02:27:10;11.10;1.00
6206;DHT22;3136;48.788;9.772;2023-06-04T02:29:36;9.90;1.00
6206;DHT22;3136;48.788;9.772;2023-06-04T02:32:02;9.90;59.90
6206;DHT22;3136;48.788;9.772;2023-06-04T02:34:27;10.90;99.90
6206;DHT22;3136;48.788;9.772;2023-06-04T02:36:53;9.90;99.90
6206;DHT22;3136;48.788;9.772;2023-06-04T02:39:20;10.70;1.00
6206;DHT22;3136;48.788;9.772;2023-06-04T02:41:45;9.80;1.00
6206;DHT22;3136;48.788;9.772;2023-06-04T02:44:11;9.80;1.00
6206;DHT22;3136;48.788;9.772;2023-06-04T02:46:38;9.70;1.00
6206;DHT22;3136;48.788;9.772;2023-06-04T02:49:03;9.70;1.00
6206;DHT22;3136;48.788;9.772;2023-06-04T02:51:29;9.60;1.00
6206;DHT22;3136;48.788;9.772;2023-06-04T02:53:55;9.80;1.00
6206;DHT22;3136;48.788;9.772;2023-06-04T02:56:20;9.60;1.00
6206;DHT22;3136;48.788;9.772;2023-06-04T02:58:54;9.50;1.00
6206;DHT22;3136;48.788;9.772;2023-06-04T03:01:25;9.50;1.00
6206;DHT22;3136;48.788;9.772;2023-06-04T03:03:52;9.40;1.00
6206;DHT22;3136;48.788;9.772;2023-06-04T03:06:19;9.40;1.00
6206;DHT22;3136;48.788;9.772;2023-06-04T03:08:48;9.40;1.00
6206;DHT22;3136;48.788;9.772;2023-06-04T03:11:15;9.40;1.00
6206;DHT22;3136;48.788;9.772;2023-06-04T03:13:41;9.40;99.90
6206;DHT22;3136;48.788;9.772;2023-06-04T03:16:06;10.00;99.90
6206;DHT22;3136;48.788;9.772;2023-06-04T03:18:39;9.20;1.00
6206;DHT22;3136;48.788;9.772;2023-06-04T03:21:05;9.20;1.00
6206;DHT22;3136;48.788;9.772;2023-06-04T03:23:33;9.30;1.00
6206;DHT22;3136;48.788;9.772;2023-06-04T03:25:58;9.30;1.00
6206;DHT22;3136;48.788;9.772;2023-06-04T03:28:24;9.30;1.00
6206;DHT22;3136;48.788;9.772;2023-06-04T03:30:49;9.20;1.00
6206;DHT22;3136;48.788;9.772;2023-06-04T03:33:15;9.20;1.00
6206;DHT22;3136;48.788;9.772;2023-06-04T03:35:41;9.20;1.00
6206;DHT22;3136;48.788;9.772;2023-06-04T03:38:07;9.60;1.00
6206;DHT22;3136;48.788;9.772;2023-06-04T03:40:32;9.10;1.00
6206;DHT22;3136;48.788;9.772;2023-06-04T03:42:58;9.10;1.00
6206;DHT22;3136;48.788;9.772;2023-06-04T03:45:23;9.00;1.00
6206;DHT22;3136;48.788;9.772;2023-06-04T03:47:49;9.20;1.00
6206;DHT22;3136;48.788;9.772;2023-06-04T03:50:15;10.80;1.00
6206;DHT22;3136;48.788;9.772;2023-06-04T03:52:40;9.20;1.00
6206;DHT22;3136;48.788;9.772;2023-06-04T03:55:06;9.20;1.00
6206;DHT22;3136;48.788;9.772;2023-06-04T03:57:32;9.20;1.00
6206;DHT22;3136;48.788;9.772;2023-06-04T03:59:58;9.20;1.00
6206;DHT22;3136;48.788;9.772;2023-06-04T04:02:23;9.20;1.00
6206;DHT22;3136;48.788;9.772;2023-06-04T04:04:49;10.80;99.90
6206;DHT22;3136;48.788;9.772;2023-06-04T04:07:15;9.30;96.40
6206;DHT22;3136;48.788;9.772;2023-06-04T04:09:41;9.30;1.00
6206;DHT22;3136;48.788;9.772;2023-06-04T04:12:06;9.30;1.00
6206;DHT22;3136;48.788;9.772;2023-06-04T04:14:32;9.30;1.00
6206;DHT22;3136;48.788;9.772;2023-06-04T04:16:58;9.30;1.00
6206;DHT22;3136;48.788;9.772;2023-06-04T04:19:23;9.40;1.00
6206;DHT22;3136;48.788;9.772;2023-06-04T04:21:49;9.40;1.00
6206;DHT22;3136;48.788;9.772;2023-06-04T04:24:27;9.50;99.90
6206;DHT22;3136;48.788;9.772;2023-06-04T04:26:54;9.50;99.90
6206;DHT22;3136;48.788;9.772;2023-06-04T04:29:20;9.50;1.00
6206;DHT22;3136;48.788;9.772;2023-06-04T04:31:49;9.50;1.00
6206;DHT22;3136;48.788;9.772;2023-06-04T04:34:14;9.60;1.00
6206;DHT22;3136;48.788;9.772;2023-06-04T04:36:40;10.10;1.00
6206;DHT22;3136;48.788;9.772;2023-06-04T04:39:06;9.70;1.00
6206;DHT22;3136;48.788;9.772;2023-06-04T04:41:32;9.80;1.00
6206;DHT22;3136;48.788;9.772;2023-06-04T04:44:03;9.90;1.00
6206;DHT22;3136;48.788;9.772;2023-06-04T04:46:30;10.00;1.00
6206;DHT22;3136;48.788;9.772;2023-06-04T04:48:55;10.10;1.00
6206;DHT22;3136;48.788;9.772;2023-06-04T04:51:21;10.20;1.00
6206;DHT22;3136;48.788;9.772;2023-06-04T04:53:47;10.50;99.90
6206;DHT22;3136;48.788;9.772;2023-06-04T04:56:13;10.50;99.90
6206;DHT22;3136;48.788;9.772;2023-06-04T04:58:38;10.70;99.90
6206;DHT22;3136;48.788;9.772;2023-06-04T05:01:04;10.90;99.90
6206;DHT22;3136;48.788;9.772;2023-06-04T05:03:30;11.10;95.10
6206;DHT22;3136;48.788;9.772;2023-06-04T05:05:55;11.20;87.30
6206;DHT22;3136;48.788;9.772;2023-06-04T05:08:21;11.40;1.00
6206;DHT22;3136;48.788;9.772;2023-06-04T05:10:46;11.60;1.00
6206;DHT22;3136;48.788;9.772;2023-06-04T05:13:12;11.70;1.00
6206;DHT22;3136;48.788;9.772;2023-06-04T05:15:38;11.80;1.00
6206;DHT22;3136;48.788;9.772;2023-06-04T05:18:05;11.90;1.00
6206;DHT22;3136;48.788;9.772;2023-06-04T05:20:30;12.00;99.90
6206;DHT22;3136;48.788;9.772;2023-06-04T05:22:56;12.10;99.90
6206;DHT22;3136;48.788;9.772;2023-06-04T05:25:22;12.20;99.90
6206;DHT22;3136;48.788;9.772;2023-06-04T05:27:47;12.30;99.90
6206;DHT22;3136;48.788;9.772;2023-06-04T05:30:14;12.50;99.90
6206;DHT22;3136;48.788;9.772;2023-06-04T05:32:40;12.60;99.90
6206;DHT22;3136;48.788;9.772;2023-06-04T05:35:06;12.70;99.90
6206;DHT22;3136;48.788;9.772;2023-06-04T05:37:33;12.80;99.90
6206;DHT22;3136;48.788;9.772;2023-06-04T05:40:03;12.90;99.90
6206;DHT22;3136;48.788;9.772;2023-06-04T05:42:30;13.00;99.90
6206;DHT22;3136;48.788;9.772;2023-06-04T05:44:56;13.70;99.90
6206;DHT22;3136;48.788;9.772;2023-06-04T05:47:21;13.10;99.90
6206;DHT22;3136;48.788;9.772;2023-06-04T05:49:47;13.10;99.90
6206;DHT22;3136;48.788;9.772;2023-06-04T05:52:13;13.20;99.90
6206;DHT22;3136;48.788;9.772;2023-06-04T05:54:38;13.20;99.90
6206;DHT22;3136;48.788;9.772;2023-06-04T05:57:04;13.30;99.90
6206;DHT22;3136;48.788;9.772;2023-06-04T05:59:31;13.10;99.90
6206;DHT22;3136;48.788;9.772;2023-06-04T06:01:57;13.10;99.90
6206;DHT22;3136;48.788;9.772;2023-06-04T06:04:22;13.10;99.90
6206;DHT22;3136;48.788;9.772;2023-06-04T06:06:48;13.60;99.90
6206;DHT22;3136;48.788;9.772;2023-06-04T06:09:15;13.10;99.90
6206;DHT22;3136;48.788;9.772;2023-06-04T06:11:41;13.50;99.90
6206;DHT22;3136;48.788;9.772;2023-06-04T06:14:07;13.10;99.90
6206;DHT22;3136;48.788;9.772;2023-06-04T06:16:32;13.20;99.90
6206;DHT22;3136;48.788;9.772;2023-06-04T06:18:59;13.30;99.90
6206;DHT22;3136;48.788;9.772;2023-06-04T06:21:25;13.30;99.90
6206;DHT22;3136;48.788;9.772;2023-06-04T06:23:51;13.40;99.90
6206;DHT22;3136;48.788;9.772;2023-06-04T06:26:17;13.40;99.90
6206;DHT22;3136;48.788;9.772;2023-06-04T06:28:43;13.40;99.90
6206;DHT22;3136;48.788;9.772;2023-06-04T06:31:09;13.30;99.90
6206;DHT22;3136;48.788;9.772;2023-06-04T06:33:35;13.40;99.90
6206;DHT22;3136;48.788;9.772;2023-06-04T06:36:02;13.50;99.90
6206;DHT22;3136;48.788;9.772;2023-06-04T06:38:27;13.60;99.90
6206;DHT22;3136;48.788;9.772;2023-06-04T06:40:53;13.80;99.90
6206;DHT22;3136;48.788;9.772;2023-06-04T06:43:19;14.00;99.90
6206;DHT22;3136;48.788;9.772;2023-06-04T06:45:45;14.10;99.90
6206;DHT22;3136;48.788;9.772;2023-06-04T06:48:10;14.30;99.90
6206;DHT22;3136;48.788;9.772;2023-06-04T06:50:36;14.40;99.90
6206;DHT22;3136;48.788;9.772;2023-06-04T06:53:02;14.60;99.90
6206;DHT22;3136;48.788;9.772;2023-06-04T06:55:28;14.70;99.90
6206;DHT22;3136;48.788;9.772;2023-06-04T06:57:54;14.80;99.90
6206;DHT22;3136;48.788;9.772;2023-06-04T07:00:19;14.90;99.90
6206;DHT22;3136;48.788;9.772;2023-06-04T07:02:45;15.20;99.90
6206;DHT22;3136;48.788;9.772;2023-06-04T07:05:11;15.10;99.90
6206;DHT22;3136;48.788;9.772;2023-06-04T07:07:37;15.30;99.90
6206;DHT22;3136;48.788;9.772;2023-06-04T07:10:03;15.30;99.90
6206;DHT22;3136;48.788;9.772;2023-06-04T07:12:29;15.40;99.90
6206;DHT22;3136;48.788;9.772;2023-06-04T07:14:55;15.50;99.90
6206;DHT22;3136;48.788;9.772;2023-06-04T07:17:21;15.60;99.90
6206;DHT22;3136;48.788;9.772;2023-06-04T07:19:47;15.80;99.90
6206;DHT22;3136;48.788;9.772;2023-06-04T07:22:13;15.90;99.90
6206;DHT22;3136;48.788;9.772;2023-06-04T07:24:41;16.00;99.90
6206;DHT22;3136;48.788;9.772;2023-06-04T07:27:13;16.30;98.60
6206;DHT22;3136;48.788;9.772;2023-06-04T07:29:39;16.40;97.70
6206;DHT22;3136;48.788;9.772;2023-06-04T07:32:05;16.60;99.90
6206;DHT22;3136;48.788;9.772;2023-06-04T07:34:32;16.80;91.10
6206;DHT22;3136;48.788;9.772;2023-06-04T07:36:57;17.30;91.30
6206;DHT22;3136;48.788;9.772;2023-06-04T07:39:23;18.10;84.60
6206;DHT22;3136;48.788;9.772;2023-06-04T07:41:49;17.30;84.20
6206;DHT22;3136;48.788;9.772;2023-06-04T07:44:14;18.90;90.50
6206;DHT22;3136;48.788;9.772;2023-06-04T07:46:40;17.40;88.70
6206;DHT22;3136;48.788;9.772;2023-06-04T07:49:05;17.50;83.30
6206;DHT22;3136;48.788;9.772;2023-06-04T07:51:31;17.60;94.80
6206;DHT22;3136;48.788;9.772;2023-06-04T07:53:56;17.80;90.20
6206;DHT22;3136;48.788;9.772;2023-06-04T07:56:22;18.10;80.50
6206;DHT22;3136;48.788;9.772;2023-06-04T07:58:47;18.30;78.30
6206;DHT22;3136;48.788;9.772;2023-06-04T08:01:13;18.80;78.60
6206;DHT22;3136;48.788;9.772;2023-06-04T08:03:39;18.50;68.40
6206;DHT22;3136;48.788;9.772;2023-06-04T08:06:05;18.50;69.00
6206;DHT22;3136;48.788;9.772;2023-06-04T08:08:31;18.50;68.90
6206;DHT22;3136;48.788;9.772;2023-06-04T08:10:59;18.50;67.90
6206;DHT22;3136;48.788;9.772;2023-06-04T08:13:25;18.60;66.20
6206;DHT22;3136;48.788;9.772;2023-06-04T08:15:51;18.70;71.30
6206;DHT22;3136;48.788;9.772;2023-06-04T08:18:16;18.90;71.80
6206;DHT22;3136;48.788;9.772;2023-06-04T08:20:42;18.90;69.20
6206;DHT22;3136;48.788;9.772;2023-06-04T08:23:08;19.10;66.80
6206;DHT22;3136;48.788;9.772;2023-06-04T08:25:33;19.20;70.10
6206;DHT22;3136;48.788;9.772;2023-06-04T08:27:59;19.30;62.10
6206;DHT22;3136;48.788;9.772;2023-06-04T08:30:25;19.30;60.70
6206;DHT22;3136;48.788;9.772;2023-06-04T08:32:51;19.40;61.10
6206;DHT22;3136;48.788;9.772;2023-06-04T08:35:16;19.50;60.70
6206;DHT22;3136;48.788;9.772;2023-06-04T08:37:42;19.70;62.00
6206;DHT22;3136;48.788;9.772;2023-06-04T08:40:09;19.80;61.00
6206;DHT22;3136;48.788;9.772;2023-06-04T08:42:42;20.00;57.90
6206;DHT22;3136;48.788;9.772;2023-06-04T08:45:12;20.10;58.30
6206;DHT22;3136;48.788;9.772;2023-06-04T08:47:40;20.10;57.70
6206;DHT22;3136;48.788;9.772;2023-06-04T08:50:10;20.30;56.50
6206;DHT22;3136;48.788;9.772;2023-06-04T08:52:37;20.50;56.60
6206;DHT22;3136;48.788;9.772;2023-06-04T08:55:03;20.60;55.70
6206;DHT22;3136;48.788;9.772;2023-06-04T08:57:30;20.80;54.80
6206;DHT22;3136;48.788;9.772;2023-06-04T08:59:56;20.80;53.90
6206;DHT22;3136;48.788;9.772;2023-06-04T09:02:22;21.10;53.80
6206;DHT22;3136;48.788;9.772;2023-06-04T09:04:47;21.00;52.70
6206;DHT22;3136;48.788;9.772;2023-06-04T09:07:14;21.10;51.00
6206;DHT22;3136;48.788;9.772;2023-06-04T09:09:45;21.10;51.50
6206;DHT22;3136;48.788;9.772;2023-06-04T09:12:17;21.10;49.90
6206;DHT22;3136;48.788;9.772;2023-06-04T09:14:47;21.10;50.30
6206;DHT22;3136;48.788;9.772;2023-06-04T09:17:13;21.10;49.00
6206;DHT22;3136;48.788;9.772;2023-06-04T09:19:40;21.30;48.60
6206;DHT22;3136;48.788;9.772;2023-06-04T09:22:05;21.40;48.50
6206;DHT22;3136;48.788;9.772;2023-06-04T09:24:40;21.40;48.20
6206;DHT22;3136;48.788;9.772;2023-06-04T09:27:10;21.50;48.30
6206;DHT22;3136;48.788;9.772;2023-06-04T09:29:37;21.60;47.10
6206;DHT22;3136;48.788;9.772;2023-06-04T09:32:02;21.60;46.40
6206;DHT22;3136;48.788;9.772;2023-06-04T09:34:28;21.70;47.00
6206;DHT22;3136;48.788;9.772;2023-06-04T09:36:54;21.80;46.20
6206;DHT22;3136;48.788;9.772;2023-06-04T09:39:20;21.90;44.60
6206;DHT22;3136;48.788;9.772;2023-06-04T09:41:57;22.00;44.60
6206;DHT22;3136;48.788;9.772;2023-06-04T09:44:23;23.40;46.20
6206;DHT22;3136;48.788;9.772;2023-06-04T09:46:58;22.10;44.40
6206;DHT22;3136;48.788;9.772;2023-06-04T09:49:24;22.20;44.30
6206;DHT22;3136;48.788;9.772;2023-06-04T09:51:50;22.40;44.10
6206;DHT22;3136;48.788;9.772;2023-06-04T09:54:16;22.50;44.50
6206;DHT22;3136;48.788;9.772;2023-06-04T09:56:41;22.60;42.40
6206;DHT22;3136;48.788;9.772;2023-06-04T09:59:09;22.70;43.80
6206;DHT22;3136;48.788;9.772;2023-06-04T10:01:39;22.80;44.10
6206;DHT22;3136;48.788;9.772;2023-06-04T10:04:08;22.90;41.30
6206;DHT22;3136;48.788;9.772;2023-06-04T10:06:35;23.00;43.00
6206;DHT22;3136;48.788;9.772;2023-06-04T10:09:08;23.10;41.30
6206;DHT22;3136;48.788;9.772;2023-06-04T10:11:40;23.20;41.50
6206;DHT22;3136;48.788;9.772;2023-06-04T10:14:12;23.20;40.40
6206;DHT22;3136;48.788;9.772;2023-06-04T10:16:44;23.20;60.30
6206;DHT22;3136;48.788;9.772;2023-06-04T10:19:10;23.30;38.90
6206;DHT22;3136;48.788;9.772;2023-06-04T10:21:37;23.50;39.70
6206;DHT22;3136;48.788;9.772;2023-06-04T10:24:03;23.50;40.00
6206;DHT22;3136;48.788;9.772;2023-06-04T10:26:29;23.50;38.50
6206;DHT22;3136;48.788;9.772;2023-06-04T10:28:56;23.60;39.10
6206;DHT22;3136;48.788;9.772;2023-06-04T10:31:22;23.80;37.90
6206;DHT22;3136;48.788;9.772;2023-06-04T10:33:48;24.00;37.60
6206;DHT22;3136;48.788;9.772;2023-06-04T10:36:20;24.00;36.80
6206;DHT22;3136;48.788;9.772;2023-06-04T10:38:53;24.10;36.60
6206;DHT22;3136;48.788;9.772;2023-06-04T10:41:20;24.20;35.40
6206;DHT22;3136;48.788;9.772;2023-06-04T10:43:51;24.50;34.70
6206;DHT22;3136;48.788;9.772;2023-06-04T10:46:19;26.70;35.60
6206;DHT22;3136;48.788;9.772;2023-06-04T10:48:49;26.10;31.90
6206;DHT22;3136;48.788;9.772;2023-06-04T10:51:16;26.80;30.00
6206;DHT22;3136;48.788;9.772;2023-06-04T10:53:53;27.70;29.90
6206;DHT22;3136;48.788;9.772;2023-06-04T10:56:29;28.30;29.20
6206;DHT22;3136;48.788;9.772;2023-06-04T10:58:57;28.80;27.80
6206;DHT22;3136;48.788;9.772;2023-06-04T11:01:27;29.00;27.30
6206;DHT22;3136;48.788;9.772;2023-06-04T11:03:54;29.00;27.20
6206;DHT22;3136;48.788;9.772;2023-06-04T11:06:21;28.60;27.20
6206;DHT22;3136;48.788;9.772;2023-06-04T11:08:47;28.20;26.70
6206;DHT22;3136;48.788;9.772;2023-06-04T11:11:14;27.90;25.90
6206;DHT22;3136;48.788;9.772;2023-06-04T11:13:40;28.10;27.70
6206;DHT22;3136;48.788;9.772;2023-06-04T11:16:19;28.30;26.70
6206;DHT22;3136;48.788;9.772;2023-06-04T11:18:57;28.70;26.50
6206;DHT22;3136;48.788;9.772;2023-06-04T11:21:24;28.60;26.20
6206;DHT22;3136;48.788;9.772;2023-06-04T11:23:56;28.40;25.00
6206;DHT22;3136;48.788;9.772;2023-06-04T11:26:25;28.70;25.90
6206;DHT22;3136;48.788;9.772;2023-06-04T11:28:54;29.20;23.50
6206;DHT22;3136;48.788;9.772;2023-06-04T11:31:19;29.80;24.00
6206;DHT22;3136;48.788;9.772;2023-06-04T11:33:47;30.40;23.50
6206;DHT22;3136;48.788;9.772;2023-06-04T11:36:42;30.90;23.00
6206;DHT22;3136;48.788;9.772;2023-06-04T11:39:08;31.50;24.30
6206;DHT22;3136;48.788;9.772;2023-06-04T11:41:35;32.00;23.30
6206;DHT22;3136;48.788;9.772;2023-06-04T11:44:03;32.30;22.00
6206;DHT22;3136;48.788;9.772;2023-06-04T11:46:33;32.10;22.30
6206;DHT22;3136;48.788;9.772;2023-06-04T11:48:59;31.90;20.80
6206;DHT22;3136;48.788;9.772;2023-06-04T11:51:26;31.50;20.00
6206;DHT22;3136;48.788;9.772;2023-06-04T11:53:52;31.60;20.00
6206;DHT22;3136;48.788;9.772;2023-06-04T11:56:17;31.80;21.40
6206;DHT22;3136;48.788;9.772;2023-06-04T11:58:43;32.30;19.40
6206;DHT22;3136;48.788;9.772;2023-06-04T12:01:12;32.50;18.80
6206;DHT22;3136;48.788;9.772;2023-06-04T12:03:42;32.60;17.50
6206;DHT22;3136;48.788;9.772;2023-06-04T12:06:16;32.40;18.30
6206;DHT22;3136;48.788;9.772;2023-06-04T12:08:52;32.70;18.00
6206;DHT22;3136;48.788;9.772;2023-06-04T12:11:32;33.00;18.50
6206;DHT22;3136;48.788;9.772;2023-06-04T12:14:00;33.00;18.00
6206;DHT22;3136;48.788;9.772;2023-06-04T12:16:26;33.20;18.70
6206;DHT22;3136;48.788;9.772;2023-06-04T12:18:52;33.00;16.50
6206;DHT22;3136;48.788;9.772;2023-06-04T12:21:28;32.90;16.90
6206;DHT22;3136;48.788;9.772;2023-06-04T12:24:12;32.30;15.40
6206;DHT22;3136;48.788;9.772;2023-06-04T12:26:39;32.10;14.40
6206;DHT22;3136;48.788;9.772;2023-06-04T12:29:13;32.30;15.60
6206;DHT22;3136;48.788;9.772;2023-06-04T12:31:45;32.60;15.10
6206;DHT22;3136;48.788;9.772;2023-06-04T12:34:14;33.00;14.50
6206;DHT22;3136;48.788;9.772;2023-06-04T12:36:40;33.20;15.00
6206;DHT22;3136;48.788;9.772;2023-06-04T12:39:06;33.40;15.20
6206;DHT22;3136;48.788;9.772;2023-06-04T12:41:32;33.40;13.90
6206;DHT22;3136;48.788;9.772;2023-06-04T12:43:59;33.40;14.00
6206;DHT22;3136;48.788;9.772;2023-06-04T12:46:25;33.30;14.10
6206;DHT22;3136;48.788;9.772;2023-06-04T12:48:51;33.00;12.50
6206;DHT22;3136;48.788;9.772;2023-06-04T12:51:17;32.80;12.50
6206;DHT22;3136;48.788;9.772;2023-06-04T12:53:43;32.60;11.50
6206;DHT22;3136;48.788;9.772;2023-06-04T12:56:09;32.50;11.30
6206;DHT22;3136;48.788;9.772;2023-06-04T12:58:35;32.40;11.30
6206;DHT22;3136;48.788;9.772;2023-06-04T13:01:00;32.40;11.30
6206;DHT22;3136;48.788;9.772;2023-06-04T13:03:26;32.50;10.50
6206;DHT22;3136;48.788;9.772;2023-06-04T13:05:52;32.20;8.70
6206;DHT22;3136;48.788;9.772;2023-06-04T13:08:19;32.20;10.00
6206;DHT22;3136;48.788;9.772;2023-06-04T13:10:49;32.40;9.80
6206;DHT22;3136;48.788;9.772;2023-06-04T13:13:17;32.60;9.90
6206;DHT22;3136;48.788;9.772;2023-06-04T13:15:42;32.60;8.80
6206;DHT22;3136;48.788;9.772;2023-06-04T13:18:09;32.60;8.60
6206;DHT22;3136;48.788;9.772;2023-06-04T13:20:35;32.30;8.00
6206;DHT22;3136;48.788;9.772;2023-06-04T13:23:01;32.30;8.80
6206;DHT22;3136;48.788;9.772;2023-06-04T13:25:26;32.30;7.70
6206;DHT22;3136;48.788;9.772;2023-06-04T13:27:54;32.30;9.30
6206;DHT22;3136;48.788;9.772;2023-06-04T13:30:20;32.20;8.70
6206;DHT22;3136;48.788;9.772;2023-06-04T13:32:46;32.10;7.10
6206;DHT22;3136;48.788;9.772;2023-06-04T13:35:12;31.90;7.50
6206;DHT22;3136;48.788;9.772;2023-06-04T13:37:37;31.80;7.40
6206;DHT22;3136;48.788;9.772;2023-06-04T13:40:03;31.70;7.80
6206;DHT22;3136;48.788;9.772;2023-06-04T13:42:29;31.50;7.00
6206;DHT22;3136;48.788;9.772;2023-06-04T13:44:54;31.70;7.20
6206;DHT22;3136;48.788;9.772;2023-06-04T13:47:20;31.90;6.50
6206;DHT22;3136;48.788;9.772;2023-06-04T13:49:47;31.70;6.50
6206;DHT22;3136;48.788;9.772;2023-06-04T13:52:13;31.60;6.90
6206;DHT22;3136;48.788;9.772;2023-06-04T13:54:38;31.50;6.60
6206;DHT22;3136;48.788;9.772;2023-06-04T13:57:04;31.40;6.20
6206;DHT22;3136;48.788;9.772;2023-06-04T13:59:30;31.20;6.40
6206;DHT22;3136;48.788;9.772;2023-06-04T14:01:56;30.40;6.60
6206;DHT22;3136;48.788;9.772;2023-06-04T14:04:22;29.40;6.30
6206;DHT22;3136;48.788;9.772;2023-06-04T14:06:48;28.70;6.80
6206;DHT22;3136;48.788;9.772;2023-06-04T14:09:13;28.10;6.40
6206;DHT22;3136;48.788;9.772;2023-06-04T14:11:39;27.70;7.70
6206;DHT22;3136;48.788;9.772;2023-06-04T14:14:05;27.30;6.50
6206;DHT22;3136;48.788;9.772;2023-06-04T14:16:31;27.10;7.60
6206;DHT22;3136;48.788;9.772;2023-06-04T14:18:56;26.90;7.80
6206;DHT22;3136;48.788;9.772;2023-06-04T14:21:22;26.70;7.30
6206;DHT22;3136;48.788;9.772;2023-06-04T14:23:47;26.40;8.30
6206;DHT22;3136;48.788;9.772;2023-06-04T14:26:14;26.40;8.30
6206;DHT22;3136;48.788;9.772;2023-06-04T14:28:42;26.30;7.70
6206;DHT22;3136;48.788;9.772;2023-06-04T14:31:07;26.30;7.30
6206;DHT22;3136;48.788;9.772;2023-06-04T14:33:33;26.20;7.80
6206;DHT22;3136;48.788;9.772;2023-06-04T14:36:00;26.30;8.50
6206;DHT22;3136;48.788;9.772;2023-06-04T14:38:26;26.20;9.20
6206;DHT22;3136;48.788;9.772;2023-06-04T14:40:51;26.20;8.40
6206;DHT22;3136;48.788;9.772;2023-06-04T14:43:17;26.20;8.20
6206;DHT22;3136;48.788;9.772;2023-06-04T14:45:43;26.10;8.50
6206;DHT22;3136;48.788;9.772;2023-06-04T14:48:08;26.00;8.10
6206;DHT22;3136;48.788;9.772;2023-06-04T14:50:34;26.00;8.10
6206;DHT22;3136;48.788;9.772;2023-06-04T14:53:00;25.90;9.30
6206;DHT22;3136;48.788;9.772;2023-06-04T14:55:25;25.80;23.60
6206;DHT22;3136;48.788;9.772;2023-06-04T14:57:51;25.70;8.20
6206;DHT22;3136;48.788;9.772;2023-06-04T15:00:17;25.50;9.40
6206;DHT22;3136;48.788;9.772;2023-06-04T15:02:42;25.50;8.70
6206;DHT22;3136;48.788;9.772;2023-06-04T15:05:08;25.50;8.90
6206;DHT22;3136;48.788;9.772;2023-06-04T15:07:34;25.40;9.00
6206;DHT22;3136;48.788;9.772;2023-06-04T15:09:59;25.40;11.30
6206;DHT22;3136;48.788;9.772;2023-06-04T15:12:27;25.40;8.90
6206;DHT22;3136;48.788;9.772;2023-06-04T15:14:53;25.30;9.00
6206;DHT22;3136;48.788;9.772;2023-06-04T15:17:19;25.20;9.40
6206;DHT22;3136;48.788;9.772;2023-06-04T15:19:44;25.10;10.00
6206;DHT22;3136;48.788;9.772;2023-06-04T15:22:10;25.10;8.50
6206;DHT22;3136;48.788;9.772;2023-06-04T15:24:35;24.90;9.60
6206;DHT22;3136;48.788;9.772;2023-06-04T15:27:01;25.00;10.20
6206;DHT22;3136;48.788;9.772;2023-06-04T15:29:26;24.90;9.70
6206;DHT22;3136;48.788;9.772;2023-06-04T15:31:52;24.90;10.20
6206;DHT22;3136;48.788;9.772;2023-06-04T15:34:18;24.90;9.20
6206;DHT22;3136;48.788;9.772;2023-06-04T15:36:44;24.80;10.60
6206;DHT22;3136;48.788;9.772;2023-06-04T15:39:12;24.70;11.20
6206;DHT22;3136;48.788;9.772;2023-06-04T15:41:37;24.70;10.00
6206;DHT22;3136;48.788;9.772;2023-06-04T15:44:03;24.60;10.00
6206;DHT22;3136;48.788;9.772;2023-06-04T15:46:29;24.60;10.10
6206;DHT22;3136;48.788;9.772;2023-06-04T15:48:55;24.50;10.50
6206;DHT22;3136;48.788;9.772;2023-06-04T15:51:20;24.30;11.10
6206;DHT22;3136;48.788;9.772;2023-06-04T15:53:46;24.20;11.60
6206;DHT22;3136;48.788;9.772;2023-06-04T15:56:12;24.20;10.60
6206;DHT22;3136;48.788;9.772;2023-06-04T15:58:41;24.00;10.20
6206;DHT22;3136;48.788;9.772;2023-06-04T16:01:07;24.00;10.60
6206;DHT22;3136;48.788;9.772;2023-06-04T16:03:32;24.00;10.60
6206;DHT22;3136;48.788;9.772;2023-06-04T16:05:58;24.00;11.60
6206;DHT22;3136;48.788;9.772;2023-06-04T16:08:23;24.00;12.30
6206;DHT22;3136;48.788;9.772;2023-06-04T16:10:49;24.10;12.00